createdAt,value
2023-03-02T00:00:16.894Z,99.90
2023-03-02T00:05:18.833Z,99.90
2023-03-02T00:10:21.180Z,99.90
2023-03-02T00:15:23.376Z,99.90
2023-03-02T00:20:25.181Z,99.90
2023-03-02T00:25:27.002Z,99.90
2023-03-02T00:30:29.162Z,99.90
2023-03-02T00:35:30.985Z,99.90
2023-03-02T00:40:33.580Z,99.90
2023-03-02T00:45:35.456Z,99.90
2023-03-02T00:50:40.986Z,99.90
2023-03-02T00:55:42.745Z,99.90
2023-03-02T01:00:44.905Z,99.90
2023-03-02T01:05:47.063Z,99.90
2023-03-02T01:10:49.088Z,99.90
2023-03-02T01:16:00.427Z,99.90
2023-03-02T01:21:08.014Z,99.90
2023-03-02T01:26:09.925Z,99.90
2023-03-02T01:31:12.011Z,99.90
2023-03-02T01:36:13.936Z,99.90
2023-03-02T01:41:16.114Z,99.90
2023-03-02T01:46:25.619Z,99.90
2023-03-02T01:51:30.640Z,99.90
2023-03-02T01:56:37.062Z,99.90
2023-03-02T02:01:43.120Z,99.90
2023-03-02T02:06:50.749Z,99.90
2023-03-02T02:11:53.124Z,99.90
2023-03-02T02:16:55.026Z,99.90
2023-03-02T02:21:57.075Z,99.90
2023-03-02T02:26:59.101Z,99.90
2023-03-02T02:32:02.687Z,99.90
2023-03-02T02:37:13.454Z,99.90
2023-03-02T02:42:34.551Z,99.90
2023-03-02T02:47:36.476Z,99.90
2023-03-02T02:52:40.972Z,99.90
2023-03-02T02:57:43.337Z,99.90
2023-03-02T03:02:50.682Z,99.90
2023-03-02T03:07:53.608Z,99.90
2023-03-02T03:12:56.461Z,99.90
2023-03-02T03:17:59.374Z,99.90
2023-03-02T03:23:01.455Z,99.90
2023-03-02T03:33:06.005Z,99.90
2023-03-02T03:38:08.977Z,99.90
2023-03-02T03:43:13.827Z,99.90
2023-03-02T03:53:18.041Z,99.90
2023-03-02T03:58:20.343Z,99.90
2023-03-02T04:03:22.707Z,99.90
2023-03-02T04:08:24.692Z,99.90
2023-03-02T04:13:26.698Z,99.90
2023-03-02T04:18:29.107Z,99.90
2023-03-02T04:23:31.358Z,99.90
2023-03-02T04:28:34.014Z,99.90
2023-03-02T04:33:35.956Z,99.90
2023-03-02T04:38:40.261Z,99.90
2023-03-02T04:43:42.252Z,99.90
2023-03-02T04:53:47.946Z,99.90
2023-03-02T04:58:50.400Z,99.90
2023-03-02T05:03:52.855Z,99.90
2023-03-02T05:08:54.734Z,99.90
2023-03-02T05:14:00.023Z,99.90
2023-03-02T05:19:06.188Z,99.90
2023-03-02T05:24:08.517Z,99.90
2023-03-02T05:29:10.401Z,99.90
2023-03-02T05:34:15.190Z,99.90
2023-03-02T05:39:16.953Z,99.90
2023-03-02T05:44:18.916Z,99.90
2023-03-02T05:49:20.663Z,99.90
2023-03-02T05:54:22.505Z,99.90
2023-03-02T05:59:24.575Z,99.90
2023-03-02T06:04:26.456Z,99.90
2023-03-02T06:09:28.254Z,99.90
2023-03-02T06:14:30.115Z,99.90
2023-03-02T06:19:32.164Z,99.90
2023-03-02T06:24:34.077Z,99.90
2023-03-02T06:29:36.053Z,99.90
2023-03-02T06:34:38.091Z,99.90
2023-03-02T06:39:40.094Z,99.90
2023-03-02T06:44:41.995Z,99.90
2023-03-02T06:49:44.037Z,99.90
2023-03-02T06:54:45.796Z,99.90
2023-03-02T06:59:47.840Z,99.90
2023-03-02T07:04:50.788Z,99.90
2023-03-02T07:09:52.593Z,99.90
2023-03-02T07:14:54.350Z,99.90
2023-03-02T07:19:56.172Z,99.90
2023-03-02T07:24:58.303Z,99.90
2023-03-02T07:30:00.112Z,99.90
2023-03-02T07:35:02.237Z,99.90
2023-03-02T07:40:05.047Z,99.90
2023-03-02T07:45:07.752Z,99.90
2023-03-02T07:50:10.238Z,99.90
2023-03-02T07:55:12.126Z,99.90
2023-03-02T08:00:14.901Z,99.90
2023-03-02T08:05:16.989Z,99.90
2023-03-02T08:10:18.993Z,99.90
2023-03-02T08:15:20.997Z,99.90
2023-03-02T08:20:22.985Z,99.90
2023-03-02T08:25:24.862Z,99.90
2023-03-02T08:30:26.722Z,99.90
2023-03-02T08:35:28.601Z,99.90
2023-03-02T08:45:34.904Z,99.90
2023-03-02T08:50:36.739Z,99.90
2023-03-02T08:55:38.517Z,99.90
2023-03-02T09:00:40.400Z,99.90
2023-03-02T09:05:42.304Z,99.90
2023-03-02T09:10:44.080Z,99.90
2023-03-02T09:15:46.145Z,99.90
2023-03-02T09:20:54.072Z,99.40
2023-03-02T09:25:57.311Z,99.30
2023-03-02T09:31:00.894Z,99.20
2023-03-02T09:36:11.787Z,98.60
2023-03-02T09:41:19.913Z,97.80
2023-03-02T09:47:06.788Z,99.10
2023-03-02T09:52:36.621Z,97.40
2023-03-02T09:57:39.857Z,97.10
2023-03-02T10:03:00.494Z,96.60
2023-03-02T10:08:04.469Z,96.40
2023-03-02T10:13:14.392Z,96.80
2023-03-02T10:18:25.136Z,95.90
2023-03-02T10:23:36.149Z,95.60
2023-03-02T10:28:50.401Z,95.40
2023-03-02T10:33:52.478Z,95.80
2023-03-02T10:38:55.904Z,95.90
2023-03-02T10:44:06.316Z,96.20
2023-03-02T10:49:42.297Z,95.70
2023-03-02T10:54:44.639Z,95.90
2023-03-02T10:59:49.281Z,96.10
2023-03-02T11:05:15.184Z,95.00
2023-03-02T11:10:32.010Z,94.30
2023-03-02T11:15:43.982Z,94.30
2023-03-02T11:20:50.712Z,92.80
2023-03-02T11:25:57.302Z,92.00
2023-03-02T11:31:00.675Z,90.40
2023-03-02T11:36:19.128Z,90.80
2023-03-02T11:46:33.135Z,88.80
2023-03-02T11:51:50.036Z,82.70
2023-03-02T11:56:55.695Z,83.90
2023-03-02T12:01:59.772Z,83.40
2023-03-02T12:07:15.585Z,83.40
2023-03-02T12:12:44.528Z,79.60
2023-03-02T12:17:46.310Z,79.90
2023-03-02T12:22:48.320Z,79.40
2023-03-02T12:27:52.677Z,80.50
2023-03-02T12:33:05.195Z,77.60
2023-03-02T12:38:20.104Z,79.50
2023-03-02T12:43:30.785Z,78.70
2023-03-02T12:48:49.269Z,78.80
2023-03-02T12:54:13.660Z,79.40
2023-03-02T12:59:26.965Z,81.10
2023-03-02T13:04:29.092Z,82.80
2023-03-02T13:09:31.161Z,81.50
2023-03-02T13:14:33.440Z,77.50
2023-03-02T13:19:35.597Z,78.20
2023-03-02T13:25:00.525Z,76.80
2023-03-02T13:30:23.050Z,73.80
2023-03-02T13:35:28.413Z,70.60
2023-03-02T13:40:40.205Z,70.00
2023-03-02T13:46:14.155Z,64.70
2023-03-02T13:51:18.629Z,63.30
2023-03-02T13:56:22.784Z,65.40
2023-03-02T14:01:24.886Z,63.90
2023-03-02T14:06:26.894Z,59.60
2023-03-02T14:11:35.128Z,59.90
2023-03-02T14:16:37.277Z,60.30
2023-03-02T14:21:39.408Z,58.50
2023-03-02T14:26:47.495Z,56.20
2023-03-02T14:31:49.545Z,56.80
2023-03-02T14:36:54.439Z,57.30
2023-03-02T14:41:56.614Z,54.20
2023-03-02T14:46:59.995Z,54.60
2023-03-02T14:52:15.308Z,57.70
2023-03-02T14:57:20.340Z,58.30
2023-03-02T15:02:26.056Z,64.40
2023-03-02T15:07:28.836Z,70.60
2023-03-02T15:12:30.737Z,72.10
2023-03-02T15:17:32.516Z,74.40
2023-03-02T15:22:34.941Z,78.10
2023-03-02T15:27:37.360Z,79.10
2023-03-02T15:32:39.251Z,79.70
2023-03-02T15:37:41.354Z,80.90
2023-03-02T15:42:43.901Z,82.20
2023-03-02T15:47:45.695Z,83.80
2023-03-02T15:52:47.855Z,84.00
2023-03-02T15:57:49.827Z,85.10
2023-03-02T16:02:51.718Z,85.70
2023-03-02T16:07:53.538Z,86.60
2023-03-02T16:12:55.657Z,88.30
2023-03-02T16:17:59.053Z,88.40
2023-03-02T16:23:02.453Z,87.40
2023-03-02T16:28:04.808Z,90.10
2023-03-02T16:33:09.971Z,90.30
2023-03-02T16:38:12.039Z,90.60
2023-03-02T16:43:13.880Z,91.40
2023-03-02T16:48:15.726Z,91.80
2023-03-02T16:53:19.573Z,92.10
2023-03-02T16:58:21.726Z,93.20
2023-03-02T17:03:23.563Z,93.30
2023-03-02T17:08:25.613Z,94.00
2023-03-02T17:13:27.787Z,94.20
2023-03-02T17:18:30.684Z,94.90
2023-03-02T17:23:33.823Z,95.20
2023-03-02T17:28:35.820Z,95.60
2023-03-02T17:33:38.321Z,95.80
2023-03-02T17:38:40.502Z,95.90
2023-03-02T17:43:42.913Z,95.90
2023-03-02T17:48:44.922Z,96.20
2023-03-02T17:53:48.788Z,96.50
2023-03-02T17:58:55.186Z,96.90
2023-03-02T18:03:57.831Z,97.40
2023-03-02T18:08:59.864Z,97.60
2023-03-02T18:14:02.086Z,98.10
2023-03-02T18:19:04.033Z,97.60
2023-03-02T18:24:07.012Z,97.70
2023-03-02T18:29:08.875Z,97.80
2023-03-02T18:34:10.788Z,98.10
2023-03-02T18:39:12.860Z,98.10
2023-03-02T18:44:14.641Z,98.60
2023-03-02T18:49:16.503Z,98.30
2023-03-02T18:54:19.307Z,98.50
2023-03-02T18:59:21.125Z,98.90
2023-03-02T19:04:26.438Z,99.20
2023-03-02T19:09:28.679Z,98.60
2023-03-02T19:14:30.955Z,99.10
2023-03-02T19:19:33.247Z,99.10
2023-03-02T19:24:35.851Z,99.30
2023-03-02T19:29:38.818Z,99.50
2023-03-02T19:34:43.156Z,99.80
2023-03-02T19:39:45.197Z,99.90
2023-03-02T19:44:47.197Z,99.80
2023-03-02T19:49:49.064Z,99.90
2023-03-02T19:54:51.026Z,99.90
2023-03-02T19:59:52.920Z,99.90
2023-03-02T20:04:54.613Z,99.90
2023-03-02T20:09:57.163Z,99.90
2023-03-02T20:14:59.273Z,99.90
2023-03-02T20:20:02.213Z,99.90
2023-03-02T20:25:05.183Z,99.90
2023-03-02T20:30:09.043Z,99.90
2023-03-02T20:35:11.988Z,99.90
2023-03-02T20:40:14.837Z,99.90
2023-03-02T20:45:16.781Z,99.90
2023-03-02T20:50:22.467Z,99.90
2023-03-02T20:55:26.838Z,99.90
2023-03-02T21:00:30.711Z,99.90
2023-03-02T21:05:34.424Z,99.90
2023-03-02T21:10:38.885Z,99.90
2023-03-02T21:15:41.225Z,99.90
2023-03-02T21:20:43.216Z,99.90
2023-03-02T21:25:45.010Z,99.90
2023-03-02T21:30:46.983Z,99.90
2023-03-02T21:35:48.844Z,99.90
2023-03-02T21:40:50.749Z,99.90
2023-03-02T21:45:52.572Z,99.90
2023-03-02T21:50:54.794Z,99.90
2023-03-02T21:55:56.971Z,99.90
2023-03-02T22:00:58.672Z,99.90
2023-03-02T22:06:00.566Z,99.90
2023-03-02T22:11:02.653Z,99.90
2023-03-02T22:16:18.766Z,99.90
2023-03-02T22:21:48.662Z,99.90
2023-03-02T22:27:16.495Z,99.90
2023-03-02T22:32:21.854Z,99.90
2023-03-02T22:37:34.125Z,99.90
2023-03-02T22:42:36.249Z,99.90
2023-03-02T22:47:42.879Z,99.90
2023-03-02T22:52:45.308Z,99.90
2023-03-02T22:57:47.451Z,99.90
2023-03-02T23:02:50.007Z,99.90
2023-03-02T23:08:11.796Z,99.90
2023-03-02T23:13:16.839Z,99.90
2023-03-02T23:18:28.541Z,99.90
2023-03-02T23:23:31.157Z,99.90
2023-03-02T23:28:33.153Z,99.90
2023-03-02T23:33:34.960Z,99.90
2023-03-02T23:38:37.389Z,99.90
2023-03-02T23:43:39.382Z,99.90
2023-03-02T23:48:42.430Z,99.90
2023-03-02T23:53:44.854Z,99.90
2023-03-02T23:58:46.842Z,99.90
